createdAt,value
2018-12-24T00:00:21.669Z,9.80
2018-12-24T00:02:52.227Z,9.80
2018-12-24T00:05:24.164Z,9.80
2018-12-24T00:07:54.573Z,9.80
2018-12-24T00:10:25.369Z,9.90
2018-12-24T00:12:57.093Z,9.90
2018-12-24T00:15:29.703Z,9.90
2018-12-24T00:18:00.361Z,9.90
2018-12-24T00:20:30.918Z,9.90
2018-12-24T00:23:01.675Z,9.90
2018-12-24T00:25:33.549Z,9.90
2018-12-24T00:28:03.835Z,9.90
2018-12-24T00:30:35.865Z,10.00
2018-12-24T00:33:06.169Z,9.90
2018-12-24T00:35:39.796Z,10.00
2018-12-24T00:38:13.564Z,10.00
2018-12-24T00:40:44.272Z,9.90
2018-12-24T00:43:14.244Z,9.90
2018-12-24T00:45:44.363Z,9.90
2018-12-24T00:48:14.550Z,9.90
2018-12-24T00:50:44.791Z,9.90
2018-12-24T00:53:15.064Z,9.90
2018-12-24T00:55:45.455Z,9.90
2018-12-24T00:58:18.793Z,9.90
2018-12-24T01:00:55.015Z,9.90
2018-12-24T01:03:25.427Z,9.90
2018-12-24T01:05:55.533Z,9.90
2018-12-24T01:08:35.167Z,9.90
2018-12-24T01:11:05.520Z,9.90
2018-12-24T01:13:38.615Z,10.00
2018-12-24T01:16:09.689Z,9.90
2018-12-24T01:18:39.673Z,10.00
2018-12-24T01:21:12.138Z,10.00
2018-12-24T01:23:45.379Z,10.00
2018-12-24T01:26:16.107Z,10.00
2018-12-24T01:28:47.751Z,10.00
2018-12-24T01:31:18.112Z,10.00
2018-12-24T01:33:49.018Z,9.90
2018-12-24T01:36:19.797Z,10.00
2018-12-24T01:38:49.975Z,10.00
2018-12-24T01:41:20.621Z,10.00
2018-12-24T01:43:50.858Z,10.00
2018-12-24T01:46:22.182Z,10.00
2018-12-24T01:48:55.517Z,10.10
2018-12-24T01:51:25.595Z,10.10
2018-12-24T01:53:55.523Z,10.10
2018-12-24T01:56:25.748Z,10.10
2018-12-24T01:58:55.787Z,10.10
2018-12-24T02:01:26.375Z,10.10
2018-12-24T02:03:57.690Z,10.10
2018-12-24T02:06:27.875Z,10.10
2018-12-24T02:08:58.208Z,10.10
2018-12-24T02:11:28.361Z,10.10
2018-12-24T02:14:00.142Z,10.10
2018-12-24T02:16:31.534Z,10.10
2018-12-24T02:19:01.589Z,10.10
2018-12-24T02:21:32.266Z,10.10
2018-12-24T02:24:02.947Z,10.10
2018-12-24T02:26:33.625Z,10.10
2018-12-24T02:29:03.432Z,9.70
2018-12-24T02:31:33.448Z,8.80
2018-12-24T02:34:03.185Z,8.20
2018-12-24T02:36:32.726Z,7.70
2018-12-24T02:39:02.625Z,7.40
2018-12-24T02:41:32.388Z,7.30
2018-12-24T02:44:02.531Z,7.20
2018-12-24T02:46:32.306Z,7.10
2018-12-24T02:49:04.662Z,7.00
2018-12-24T02:51:34.763Z,6.90
2018-12-24T02:54:04.456Z,6.80
2018-12-24T02:56:34.823Z,6.70
2018-12-24T02:59:04.905Z,6.60
2018-12-24T03:01:36.548Z,6.50
2018-12-24T03:04:06.614Z,6.40
2018-12-24T03:06:36.908Z,6.40
2018-12-24T03:09:07.784Z,6.30
2018-12-24T03:11:37.885Z,6.30
2018-12-24T03:14:07.789Z,6.20
2018-12-24T03:16:37.800Z,6.10
2018-12-24T03:19:07.498Z,6.10
2018-12-24T03:21:36.858Z,6.00
2018-12-24T03:24:06.475Z,6.00
2018-12-24T03:26:36.325Z,6.00
2018-12-24T03:29:05.895Z,5.90
2018-12-24T03:31:35.347Z,5.90
2018-12-24T03:34:05.002Z,6.00
2018-12-24T03:36:34.495Z,6.00
2018-12-24T03:39:06.063Z,5.90
2018-12-24T03:41:35.528Z,5.90
2018-12-24T03:44:05.290Z,5.90
2018-12-24T03:46:34.810Z,5.90
2018-12-24T03:49:04.542Z,5.90
2018-12-24T03:51:34.069Z,5.90
2018-12-24T03:54:03.974Z,5.80
2018-12-24T03:56:33.915Z,5.70
2018-12-24T03:59:03.564Z,5.70
2018-12-24T04:01:33.357Z,5.70
2018-12-24T04:04:03.442Z,5.60
2018-12-24T04:06:33.282Z,5.60
2018-12-24T04:09:03.375Z,5.50
2018-12-24T04:11:33.072Z,5.50
2018-12-24T04:14:02.620Z,5.40
2018-12-24T04:16:32.328Z,5.40
2018-12-24T04:19:01.945Z,5.30
2018-12-24T04:21:32.028Z,5.30
2018-12-24T04:24:01.843Z,5.30
2018-12-24T04:26:31.772Z,5.30
2018-12-24T04:29:01.404Z,5.20
2018-12-24T04:31:31.257Z,5.20
2018-12-24T04:34:01.079Z,5.20
2018-12-24T04:36:30.648Z,5.10
2018-12-24T04:39:00.428Z,5.10
2018-12-24T04:41:30.236Z,5.10
2018-12-24T04:44:00.091Z,5.00
2018-12-24T04:46:29.857Z,4.90
2018-12-24T04:48:59.656Z,4.70
2018-12-24T04:51:29.627Z,4.60
2018-12-24T04:53:59.285Z,4.50
2018-12-24T04:56:28.884Z,4.40
2018-12-24T04:58:58.456Z,4.40
2018-12-24T05:01:28.239Z,4.30
2018-12-24T05:03:58.346Z,4.30
2018-12-24T05:06:28.331Z,4.20
2018-12-24T05:08:58.071Z,4.20
2018-12-24T05:11:27.602Z,4.10
2018-12-24T05:13:57.705Z,4.10
2018-12-24T05:16:27.483Z,4.10
2018-12-24T05:18:57.158Z,4.10
2018-12-24T05:21:32.946Z,4.10
2018-12-24T05:24:02.772Z,4.10
2018-12-24T05:26:32.854Z,4.00
2018-12-24T05:29:02.411Z,4.00
2018-12-24T05:31:32.045Z,4.00
2018-12-24T05:34:01.746Z,3.90
2018-12-24T05:36:31.548Z,4.00
2018-12-24T05:39:01.178Z,3.90
2018-12-24T05:41:31.299Z,3.90
2018-12-24T05:44:00.698Z,3.90
2018-12-24T05:46:30.618Z,3.90
2018-12-24T05:49:00.257Z,3.80
2018-12-24T05:51:29.894Z,3.80
2018-12-24T05:53:59.874Z,3.70
2018-12-24T05:56:29.796Z,3.70
2018-12-24T05:58:59.454Z,3.70
2018-12-24T06:01:29.014Z,3.70
2018-12-24T06:03:58.700Z,3.60
2018-12-24T06:06:28.501Z,3.60
2018-12-24T06:08:58.261Z,3.60
2018-12-24T06:11:27.898Z,3.60
2018-12-24T06:13:58.053Z,3.50
2018-12-24T06:16:28.132Z,3.50
2018-12-24T06:18:58.082Z,3.40
2018-12-24T06:21:27.725Z,3.30
2018-12-24T06:23:57.549Z,3.30
2018-12-24T06:26:27.112Z,3.20
2018-12-24T06:28:56.526Z,3.10
2018-12-24T06:31:26.120Z,3.10
2018-12-24T06:33:55.618Z,3.10
2018-12-24T06:36:25.196Z,3.10
2018-12-24T06:38:54.806Z,3.10
2018-12-24T06:41:24.324Z,3.10
2018-12-24T06:43:54.191Z,3.10
2018-12-24T06:46:24.133Z,3.10
2018-12-24T06:48:53.846Z,3.10
2018-12-24T06:51:23.425Z,3.10
2018-12-24T06:53:53.147Z,3.00
2018-12-24T06:56:23.025Z,3.00
2018-12-24T06:58:52.491Z,3.10
2018-12-24T07:01:22.006Z,3.10
2018-12-24T07:03:51.629Z,3.10
2018-12-24T07:06:21.018Z,3.10
2018-12-24T07:08:50.560Z,3.10
2018-12-24T07:11:21.746Z,3.10
2018-12-24T07:13:51.682Z,3.10
2018-12-24T07:16:22.118Z,3.10
2018-12-24T07:18:52.241Z,3.20
2018-12-24T07:21:23.093Z,3.10
2018-12-24T07:23:53.590Z,3.20
2018-12-24T07:26:23.514Z,3.20
2018-12-24T07:28:59.038Z,3.20
2018-12-24T07:31:25.661Z,3.30
2018-12-24T07:33:56.108Z,3.30
2018-12-24T07:36:26.496Z,3.30
2018-12-24T07:38:56.586Z,3.30
2018-12-24T07:41:26.467Z,3.40
2018-12-24T07:43:56.658Z,3.40
2018-12-24T07:46:27.013Z,3.40
2018-12-24T07:48:56.873Z,3.40
2018-12-24T07:51:26.984Z,3.50
2018-12-24T07:53:56.935Z,3.50
2018-12-24T07:56:26.706Z,3.50
2018-12-24T07:58:56.876Z,3.60
2018-12-24T08:01:27.045Z,3.60
2018-12-24T08:03:56.713Z,3.60
2018-12-24T08:06:26.415Z,3.60
2018-12-24T08:08:56.627Z,3.60
2018-12-24T08:11:27.061Z,3.60
2018-12-24T08:13:57.062Z,3.60
2018-12-24T08:16:27.000Z,3.60
2018-12-24T08:18:58.391Z,3.60
2018-12-24T08:21:29.701Z,3.60
2018-12-24T08:24:00.112Z,3.60
2018-12-24T08:26:30.185Z,3.60
2018-12-24T08:28:59.934Z,3.70
2018-12-24T08:31:32.292Z,3.70
2018-12-24T08:34:02.183Z,3.70
2018-12-24T08:36:31.815Z,3.80
2018-12-24T08:39:01.765Z,3.80
2018-12-24T08:41:31.507Z,3.80
2018-12-24T08:44:01.354Z,3.80
2018-12-24T08:46:31.803Z,3.80
2018-12-24T08:49:01.566Z,3.90
2018-12-24T08:51:31.517Z,3.90
2018-12-24T08:54:01.265Z,4.00
2018-12-24T08:56:31.419Z,4.00
2018-12-24T08:59:01.312Z,4.00
2018-12-24T09:01:31.069Z,4.00
2018-12-24T09:04:00.727Z,4.00
2018-12-24T09:06:30.232Z,4.10
2018-12-24T09:09:00.060Z,4.10
2018-12-24T09:11:29.855Z,4.10
2018-12-24T09:13:59.876Z,4.10
2018-12-24T09:16:29.698Z,4.10
2018-12-24T09:18:59.525Z,4.10
2018-12-24T09:21:29.478Z,4.10
2018-12-24T09:23:59.240Z,4.00
2018-12-24T09:26:29.488Z,4.10
2018-12-24T09:28:59.197Z,4.10
2018-12-24T09:31:29.011Z,4.10
2018-12-24T09:33:58.981Z,4.20
2018-12-24T09:36:29.163Z,4.20
2018-12-24T09:38:59.162Z,4.20
2018-12-24T09:41:28.969Z,4.30
2018-12-24T09:43:59.215Z,4.30
2018-12-24T09:46:29.218Z,4.40
2018-12-24T09:48:59.340Z,4.40
2018-12-24T09:51:29.308Z,4.50
2018-12-24T09:53:59.257Z,4.60
2018-12-24T09:56:29.371Z,4.70
2018-12-24T09:58:59.256Z,4.70
2018-12-24T10:01:29.041Z,4.80
2018-12-24T10:04:03.203Z,4.90
2018-12-24T10:06:37.154Z,5.00
2018-12-24T10:09:13.283Z,5.10
2018-12-24T10:11:43.264Z,5.20
2018-12-24T10:14:13.672Z,5.20
2018-12-24T10:16:43.800Z,5.30
2018-12-24T10:19:13.776Z,5.30
2018-12-24T10:21:44.049Z,5.30
2018-12-24T10:24:14.453Z,5.10
2018-12-24T10:26:44.408Z,5.10
2018-12-24T10:29:14.770Z,5.00
2018-12-24T10:31:44.745Z,5.00
2018-12-24T10:34:14.423Z,4.90
2018-12-24T10:36:44.466Z,5.00
2018-12-24T10:39:14.600Z,5.20
2018-12-24T10:41:44.595Z,5.20
2018-12-24T10:44:14.574Z,5.30
2018-12-24T10:46:44.469Z,5.40
2018-12-24T10:49:14.309Z,5.30
2018-12-24T10:51:44.342Z,5.40
2018-12-24T10:54:14.163Z,5.20
2018-12-24T10:56:44.035Z,5.10
2018-12-24T10:59:13.729Z,5.20
2018-12-24T11:01:44.701Z,5.30
2018-12-24T11:04:14.634Z,5.30
2018-12-24T11:06:44.570Z,5.50
2018-12-24T11:09:14.386Z,5.50
2018-12-24T11:11:43.971Z,5.80
2018-12-24T11:14:13.693Z,5.90
2018-12-24T11:16:43.418Z,5.80
2018-12-24T11:19:13.081Z,5.70
2018-12-24T11:21:43.126Z,5.70
2018-12-24T11:24:13.011Z,5.80
2018-12-24T11:26:43.356Z,5.90
2018-12-24T11:29:13.529Z,6.10
2018-12-24T11:31:43.524Z,6.60
2018-12-24T11:34:13.623Z,7.00
2018-12-24T11:36:43.810Z,7.00
2018-12-24T11:39:13.646Z,6.60
2018-12-24T11:41:43.647Z,6.50
2018-12-24T11:44:13.684Z,6.20
2018-12-24T11:46:43.725Z,6.00
2018-12-24T11:49:13.678Z,5.70
2018-12-24T11:51:43.834Z,5.60
2018-12-24T11:54:14.116Z,5.40
2018-12-24T11:56:44.342Z,5.40
2018-12-24T11:59:14.232Z,5.30
2018-12-24T12:01:44.069Z,5.40
2018-12-24T12:04:13.901Z,5.20
2018-12-24T12:06:44.076Z,5.20
2018-12-24T12:09:14.433Z,5.00
2018-12-24T12:11:44.217Z,4.90
2018-12-24T12:14:15.308Z,4.80
2018-12-24T12:16:45.381Z,4.70
2018-12-24T12:19:18.225Z,4.70
2018-12-24T12:21:48.182Z,4.60
2018-12-24T12:24:18.366Z,4.60
2018-12-24T12:26:48.449Z,4.70
2018-12-24T12:29:18.450Z,4.80
2018-12-24T12:31:51.055Z,4.90
2018-12-24T12:34:21.009Z,5.00
2018-12-24T12:36:51.097Z,5.20
2018-12-24T12:39:21.025Z,5.50
2018-12-24T12:41:51.066Z,5.70
2018-12-24T12:44:21.250Z,5.90
2018-12-24T12:46:51.284Z,6.10
2018-12-24T12:49:21.228Z,5.90
2018-12-24T12:51:51.333Z,6.00
2018-12-24T12:54:21.546Z,6.10
2018-12-24T12:56:51.600Z,6.70
2018-12-24T12:59:21.770Z,7.30
2018-12-24T13:01:52.166Z,8.00
2018-12-24T13:04:22.555Z,8.10
2018-12-24T13:06:52.110Z,7.60
2018-12-24T13:09:22.108Z,7.30
2018-12-24T13:11:51.889Z,6.70
2018-12-24T13:14:22.145Z,6.20
2018-12-24T13:16:53.075Z,5.90
2018-12-24T13:19:23.298Z,5.60
2018-12-24T13:21:53.303Z,5.40
2018-12-24T13:24:23.677Z,5.40
2018-12-24T13:26:53.410Z,5.40
2018-12-24T13:29:23.293Z,5.40
2018-12-24T13:31:54.076Z,5.50
2018-12-24T13:34:24.112Z,5.90
2018-12-24T13:36:53.893Z,6.00
2018-12-24T13:39:26.815Z,6.30
2018-12-24T13:41:56.747Z,6.40
2018-12-24T13:44:32.869Z,6.40
2018-12-24T13:47:08.692Z,6.90
2018-12-24T13:49:59.331Z,7.10
2018-12-24T13:53:32.595Z,6.60
2018-12-24T13:55:54.491Z,6.10
2018-12-24T13:58:27.284Z,5.80
2018-12-24T14:00:59.875Z,5.60
2018-12-24T14:03:34.818Z,5.40
2018-12-24T14:06:07.088Z,5.20
2018-12-24T14:08:37.572Z,4.90
2018-12-24T14:11:08.037Z,4.60
2018-12-24T14:13:38.496Z,4.50
2018-12-24T14:16:16.529Z,4.50
2018-12-24T14:18:48.732Z,4.30
2018-12-24T14:21:19.181Z,4.20
2018-12-24T14:23:49.864Z,4.20
2018-12-24T14:26:21.510Z,4.00
2018-12-24T14:28:51.513Z,4.00
2018-12-24T14:31:22.876Z,4.00
2018-12-24T14:33:52.993Z,3.90
2018-12-24T14:36:24.097Z,3.90
2018-12-24T14:38:57.307Z,3.80
2018-12-24T14:41:28.019Z,3.70
2018-12-24T14:43:58.625Z,3.70
2018-12-24T14:46:34.000Z,3.70
2018-12-24T14:49:04.442Z,3.70
2018-12-24T14:51:35.352Z,3.70
2018-12-24T14:54:08.457Z,3.70
2018-12-24T14:56:38.763Z,3.70
2018-12-24T14:59:16.268Z,3.70
2018-12-24T15:01:47.117Z,3.60
2018-12-24T15:04:19.302Z,3.60
2018-12-24T15:06:54.848Z,3.50
2018-12-24T15:09:31.867Z,3.40
2018-12-24T15:12:03.955Z,3.30
2018-12-24T15:14:34.973Z,3.20
2018-12-24T15:17:05.234Z,3.10
2018-12-24T15:19:35.271Z,2.90
2018-12-24T15:22:12.077Z,2.80
2018-12-24T15:24:42.143Z,2.80
2018-12-24T15:27:12.081Z,2.70
2018-12-24T15:29:41.997Z,2.70
2018-12-24T15:32:14.373Z,2.80
2018-12-24T15:34:44.188Z,2.80
2018-12-24T15:37:14.537Z,2.80
2018-12-24T15:42:39.860Z,2.80
2018-12-24T15:45:09.774Z,2.90
2018-12-24T15:47:39.743Z,2.90
2018-12-24T15:50:09.480Z,2.90
2018-12-24T15:52:39.516Z,3.00
2018-12-24T15:55:10.556Z,3.00
2018-12-24T15:57:40.575Z,3.00
2018-12-24T16:00:11.318Z,2.90
2018-12-24T16:02:41.153Z,3.00
2018-12-24T16:05:10.928Z,2.90
2018-12-24T16:07:41.085Z,2.90
2018-12-24T16:10:10.748Z,2.90
2018-12-24T16:12:41.047Z,2.90
2018-12-24T16:15:10.814Z,2.90
2018-12-24T16:17:40.767Z,2.90
2018-12-24T16:20:10.808Z,2.90
2018-12-24T16:22:41.197Z,2.80
2018-12-24T16:25:11.236Z,2.90
2018-12-24T16:27:41.491Z,2.80
2018-12-24T16:30:11.690Z,2.80
2018-12-24T16:32:42.529Z,2.80
2018-12-24T16:35:12.705Z,2.80
2018-12-24T16:37:42.756Z,2.90
2018-12-24T16:40:13.924Z,2.90
2018-12-24T16:42:43.951Z,2.90
2018-12-24T16:45:13.849Z,2.90
2018-12-24T16:47:43.622Z,2.90
2018-12-24T16:50:14.173Z,2.90
2018-12-24T16:52:44.194Z,2.90
2018-12-24T16:55:14.061Z,2.80
2018-12-24T16:57:44.139Z,2.80
2018-12-24T17:00:16.246Z,2.90
2018-12-24T17:02:46.787Z,2.80
2018-12-24T17:05:16.790Z,2.80
2018-12-24T17:07:46.758Z,2.80
2018-12-24T17:10:16.491Z,2.80
2018-12-24T17:12:46.584Z,2.70
2018-12-24T17:15:16.542Z,2.60
2018-12-24T17:17:46.651Z,2.60
2018-12-24T17:20:16.375Z,2.50
2018-12-24T17:22:46.352Z,2.50
2018-12-24T17:25:16.141Z,2.40
2018-12-24T17:27:45.968Z,2.40
2018-12-24T17:30:15.831Z,2.40
2018-12-24T17:32:45.838Z,2.40
2018-12-24T17:35:15.576Z,2.40
2018-12-24T17:37:45.581Z,2.40
2018-12-24T17:40:15.545Z,2.40
2018-12-24T17:42:45.340Z,2.40
2018-12-24T17:45:15.429Z,2.50
2018-12-24T17:47:45.291Z,2.50
2018-12-24T17:50:15.231Z,2.50
2018-12-24T17:52:45.149Z,2.50
2018-12-24T17:55:14.866Z,2.60
2018-12-24T17:57:44.848Z,2.60
2018-12-24T18:00:14.801Z,2.60
2018-12-24T18:02:44.665Z,2.60
2018-12-24T18:05:14.367Z,2.60
2018-12-24T18:07:44.071Z,2.60
2018-12-24T18:10:13.992Z,2.60
2018-12-24T18:12:43.744Z,2.60
2018-12-24T18:15:14.038Z,2.70
2018-12-24T18:17:44.075Z,2.70
2018-12-24T18:20:13.863Z,2.70
2018-12-24T18:22:43.783Z,2.70
2018-12-24T18:25:13.759Z,2.70
2018-12-24T18:27:43.762Z,2.70
2018-12-24T18:30:14.490Z,2.70
2018-12-24T18:32:44.498Z,2.70
2018-12-24T18:35:14.301Z,2.70
2018-12-24T18:37:44.168Z,2.70
2018-12-24T18:40:14.206Z,2.70
2018-12-24T18:42:44.119Z,2.70
2018-12-24T18:45:13.939Z,2.70
2018-12-24T18:47:46.877Z,2.70
2018-12-24T18:50:17.228Z,2.70
2018-12-24T18:52:46.990Z,2.70
2018-12-24T18:55:16.847Z,2.70
2018-12-24T18:57:46.746Z,2.70
2018-12-24T19:00:16.638Z,2.70
2018-12-24T19:02:46.443Z,2.60
2018-12-24T19:05:17.071Z,2.60
2018-12-24T19:07:46.792Z,2.60
2018-12-24T19:10:16.630Z,2.60
2018-12-24T19:12:46.544Z,2.60
2018-12-24T19:15:16.374Z,2.60
2018-12-24T19:17:47.073Z,2.60
2018-12-24T19:20:17.362Z,2.60
2018-12-24T19:22:47.099Z,2.60
2018-12-24T19:25:17.116Z,2.60
2018-12-24T19:27:47.329Z,2.60
2018-12-24T19:30:17.466Z,2.60
2018-12-24T19:32:47.450Z,2.60
2018-12-24T19:35:17.767Z,2.70
2018-12-24T19:37:47.810Z,2.70
2018-12-24T19:40:17.816Z,2.70
2018-12-24T19:42:47.741Z,2.70
2018-12-24T19:45:17.567Z,2.70
2018-12-24T19:47:49.983Z,2.70
2018-12-24T19:50:19.252Z,2.70
2018-12-24T19:52:49.303Z,2.70
2018-12-24T19:55:19.287Z,2.70
2018-12-24T19:57:49.508Z,2.70
2018-12-24T20:00:19.468Z,2.70
2018-12-24T20:02:49.463Z,2.70
2018-12-24T20:05:20.142Z,2.60
2018-12-24T20:07:49.962Z,2.60
2018-12-24T20:10:20.298Z,2.50
2018-12-24T20:12:50.218Z,2.50
2018-12-24T20:15:20.288Z,2.50
2018-12-24T20:17:58.083Z,2.50
2018-12-24T20:20:25.011Z,2.50
2018-12-24T20:22:55.068Z,2.50
2018-12-24T20:25:25.081Z,2.50
2018-12-24T20:27:57.505Z,2.60
2018-12-24T20:30:27.716Z,2.60
2018-12-24T20:32:58.832Z,2.60
2018-12-24T20:35:29.012Z,2.60
2018-12-24T20:37:59.615Z,2.60
2018-12-24T20:40:29.356Z,2.60
2018-12-24T20:42:59.632Z,2.60
2018-12-24T20:45:29.946Z,2.60
2018-12-24T20:48:06.661Z,2.70
2018-12-24T20:50:31.911Z,2.70
2018-12-24T20:53:02.145Z,2.70
2018-12-24T20:55:33.271Z,2.70
2018-12-24T20:58:03.222Z,2.60
2018-12-24T21:00:34.052Z,2.60
2018-12-24T21:03:04.107Z,2.60
2018-12-24T21:05:34.372Z,2.60
2018-12-24T21:08:04.611Z,2.60
2018-12-24T21:10:34.760Z,2.60
2018-12-24T21:13:04.475Z,2.50
2018-12-24T21:15:34.672Z,2.40
2018-12-24T21:18:04.346Z,2.40
2018-12-24T21:20:34.164Z,2.30
2018-12-24T21:23:04.141Z,2.30
2018-12-24T21:25:34.333Z,2.20
2018-12-24T21:28:04.509Z,2.10
2018-12-24T21:30:35.611Z,2.00
2018-12-24T21:33:06.148Z,2.00
2018-12-24T21:38:31.298Z,1.70
2018-12-24T21:41:00.113Z,1.70
2018-12-24T21:43:29.299Z,1.60
2018-12-24T21:46:17.538Z,1.50
2018-12-24T21:48:46.753Z,1.50
2018-12-24T21:51:15.879Z,1.50
2018-12-24T21:53:44.944Z,1.50
2018-12-24T21:56:34.996Z,1.50
2018-12-24T21:59:04.246Z,1.40
2018-12-24T22:01:33.438Z,1.30
2018-12-24T22:04:02.516Z,1.30
2018-12-24T22:06:31.511Z,1.30
2018-12-24T22:09:00.720Z,1.30
2018-12-24T22:11:30.026Z,1.20
2018-12-24T22:13:59.163Z,1.10
2018-12-24T22:16:28.395Z,1.10
2018-12-24T22:18:57.544Z,1.00
2018-12-24T22:21:28.991Z,0.90
2018-12-24T22:23:58.174Z,0.80
2018-12-24T22:26:29.543Z,0.70
2018-12-24T22:28:58.832Z,0.70
2018-12-24T22:31:27.906Z,0.70
2018-12-24T22:33:57.062Z,0.60
2018-12-24T22:36:26.173Z,0.60
2018-12-24T22:38:55.357Z,0.60
2018-12-24T22:41:24.972Z,0.60
2018-12-24T22:43:54.190Z,0.70
2018-12-24T22:46:23.325Z,0.70
2018-12-24T22:48:53.009Z,0.70
2018-12-24T22:51:22.074Z,0.80
2018-12-24T22:53:51.402Z,0.80
2018-12-24T22:56:20.598Z,0.90
2018-12-24T22:58:49.833Z,0.90
2018-12-24T23:01:19.010Z,0.90
2018-12-24T23:03:48.217Z,1.00
2018-12-24T23:06:17.349Z,0.90
2018-12-24T23:08:46.170Z,0.90
2018-12-24T23:11:15.927Z,0.90
2018-12-24T23:13:45.406Z,0.90
2018-12-24T23:16:17.831Z,0.90
2018-12-24T23:18:49.526Z,0.90
2018-12-24T23:21:19.538Z,1.00
2018-12-24T23:23:48.634Z,1.00
2018-12-24T23:26:17.972Z,1.00
2018-12-24T23:28:46.884Z,1.00
2018-12-24T23:31:16.151Z,1.00
2018-12-24T23:33:46.752Z,1.00
2018-12-24T23:36:16.029Z,0.90
2018-12-24T23:38:46.299Z,0.80
2018-12-24T23:41:15.944Z,0.70
2018-12-24T23:43:44.786Z,0.60
2018-12-24T23:46:13.930Z,0.60
2018-12-24T23:48:42.827Z,0.60
2018-12-24T23:51:11.909Z,0.60
2018-12-24T23:53:40.959Z,0.60
2018-12-24T23:56:09.998Z,0.60
2018-12-24T23:58:39.374Z,0.50
